Terminal Aerodrome Forecast
Issued by NWS

Home | Current Version | Previous Version | Text Only | Print | Product List | Glossary On
Versions: 1 2 3 4 5 6 7 8 9 10 11 12 13 14 15 16 17 18 19
000
FTUS41 KBTV 211726
TAFMSS
TAF
KMSS 211726Z 2118/2218 25004KT P6SM OVC007
     FM212200 VRB03KT 5SM BR OVC003
     FM221300 06005KT 4SM BR OVC008=

USA.gov is the U.S. government's official web portal to all federal, state and local government web resources and services.